Kortemark, Belgium
Current Conditions -  °F | °C
As of 2:20 PM on Tuesday 21 Oct 2014 (Local Time) from EBOS Reporting Station
Broken Clouds Broken Clouds  
Wind Chill: 55°   Ceiling: 4200
Heat Index: 55°   Visibility: 6mi
Dew Point: 45°   Wind: 35mph
Humidity: 67%   Direction: 290°WNW
Pressure: 29.59"   Gusts: NA
Location:  51.03°N, 3.04°E
Report Text: EBOS 211220Z 29030KT 9999 FEW023 BKN042 13/07 Q1002 NOSIG
Loading
Personal Weather Stations






























Interactive Weather Map
Tropical Storm Tracking
New forecast layout! Learn more

10-Day Weather Forecast

Advertisements
Track Severe Weather on mobile